createdAt,value
2023-04-15T00:00:28.050Z,66.4140
2023-04-15T00:01:28.607Z,66.3186
2023-04-15T00:02:29.258Z,66.2825
2023-04-15T00:03:30.087Z,66.2132
2023-04-15T00:04:30.983Z,66.4290
2023-04-15T00:05:31.538Z,66.3203
2023-04-15T00:06:32.100Z,66.0778
2023-04-15T00:07:32.637Z,65.9770
2023-04-15T00:08:33.198Z,66.0580
2023-04-15T00:09:34.308Z,65.8897
2023-04-15T00:10:34.833Z,65.8443
2023-04-15T00:11:35.366Z,65.9274
2023-04-15T00:12:36.064Z,65.8907
2023-04-15T00:13:36.569Z,65.9564
2023-04-15T00:14:37.147Z,66.2495
2023-04-15T00:15:37.714Z,66.2104
2023-04-15T00:16:38.318Z,65.8972
2023-04-15T00:17:38.905Z,65.6660
2023-04-15T00:18:39.466Z,65.6828
2023-04-15T00:19:40.294Z,66.2753
2023-04-15T00:20:40.814Z,66.8014
2023-04-15T00:21:41.333Z,66.6541
2023-04-15T00:22:41.891Z,66.3839
2023-04-15T00:23:42.446Z,66.4919
2023-04-15T00:24:43.256Z,66.7043
2023-04-15T00:25:43.851Z,66.4383
2023-04-15T00:26:44.375Z,66.3851
2023-04-15T00:27:44.945Z,66.3705
2023-04-15T00:28:45.514Z,66.1166
2023-04-15T00:29:46.311Z,65.9180
2023-04-15T00:30:46.944Z,65.8340
2023-04-15T00:31:47.471Z,65.7370
2023-04-15T00:32:48.086Z,65.6462
2023-04-15T00:33:48.624Z,65.7572
2023-04-15T00:34:49.156Z,65.6275
2023-04-15T00:35:49.681Z,65.5934
2023-04-15T00:36:50.248Z,65.4393
2023-04-15T00:37:50.806Z,65.4310
2023-04-15T00:38:51.388Z,65.9782
2023-04-15T00:39:52.012Z,66.1021
2023-04-15T00:40:52.558Z,65.7784
2023-04-15T00:41:53.129Z,66.0310
2023-04-15T00:42:53.666Z,67.0914
2023-04-15T00:43:54.212Z,67.5085
2023-04-15T00:44:54.781Z,67.8031
2023-04-15T00:45:55.440Z,67.7769
2023-04-15T00:46:56.315Z,67.2312
2023-04-15T00:47:56.934Z,66.7922
2023-04-15T00:48:57.836Z,66.8414
2023-04-15T00:49:58.406Z,66.8685
2023-04-15T00:50:58.973Z,66.7836
2023-04-15T00:51:59.728Z,66.8046
2023-04-15T00:53:00.313Z,66.6209
2023-04-15T00:54:00.850Z,66.4076
2023-04-15T00:55:01.445Z,66.3204
2023-04-15T00:56:02.011Z,66.1291
2023-04-15T00:57:02.667Z,66.3322
2023-04-15T00:59:06.310Z,66.1518
2023-04-15T00:59:06.310Z,65.8155
2023-04-15T01:00:06.921Z,65.7441
2023-04-15T01:01:09.115Z,65.6418
2023-04-15T01:02:09.749Z,65.5570
2023-04-15T01:07:13.785Z,65.5442
2023-04-15T01:07:13.785Z,65.5346
2023-04-15T01:10:53.283Z,65.0704
2023-04-15T01:10:53.283Z,65.0658
2023-04-15T01:11:47.022Z,64.5484
2023-04-15T01:12:47.577Z,64.4290
2023-04-15T01:13:48.294Z,64.4077
2023-04-15T01:14:48.382Z,64.3804
2023-04-15T01:15:49.021Z,64.3780
2023-04-15T01:16:49.829Z,64.3357
2023-04-15T01:17:50.414Z,64.3148
2023-04-15T01:18:50.947Z,64.2081
2023-04-15T01:19:51.501Z,64.1118
2023-04-15T01:20:52.034Z,64.1080
2023-04-15T01:21:52.697Z,64.1855
2023-04-15T01:22:53.180Z,64.3375
2023-04-15T01:23:53.734Z,64.2318
2023-04-15T01:24:54.473Z,64.1248
2023-04-15T01:25:55.019Z,64.0568
2023-04-15T01:26:55.604Z,64.0090
2023-04-15T01:28:10.865Z,64.0328
2023-04-15T01:28:57.291Z,64.0816
2023-04-15T01:29:57.891Z,64.1031
2023-04-15T01:30:58.391Z,64.2146
2023-04-15T01:31:59.052Z,64.3560
2023-04-15T01:32:59.640Z,64.6321
2023-04-15T01:34:00.207Z,64.8181
2023-04-15T01:35:00.717Z,65.0713
2023-04-15T01:36:01.249Z,65.2425
2023-04-15T01:37:01.881Z,65.2595
2023-04-15T01:38:02.461Z,65.2290
2023-04-15T01:39:03.099Z,65.1872
2023-04-15T01:40:03.727Z,65.1308
2023-04-15T01:41:04.301Z,65.0961
2023-04-15T01:42:04.827Z,65.0364
2023-04-15T01:43:05.398Z,64.9443
2023-04-15T01:44:05.929Z,64.8586
2023-04-15T01:45:06.468Z,64.7621
2023-04-15T01:46:06.998Z,64.7992
2023-04-15T01:47:07.546Z,64.7003
2023-04-15T01:48:08.138Z,64.6125
2023-04-15T01:49:08.937Z,64.6220
2023-04-15T01:50:09.462Z,64.5723
2023-04-15T01:51:10.043Z,64.5199
2023-04-15T01:52:10.583Z,64.4712
2023-04-15T01:53:11.154Z,64.4175
2023-04-15T01:54:12.300Z,64.3531
2023-04-15T01:55:12.858Z,64.3283
2023-04-15T01:56:15.283Z,64.3060
2023-04-15T01:57:15.104Z,64.2527
2023-04-15T01:58:15.592Z,64.2323
2023-04-15T01:59:16.326Z,64.2265
2023-04-15T02:00:16.844Z,64.2340
2023-04-15T02:01:17.431Z,64.2348
2023-04-15T02:02:17.987Z,64.1867
2023-04-15T02:03:18.640Z,64.1765
2023-04-15T02:04:20.768Z,64.1953
2023-04-15T02:05:24.807Z,64.3001
2023-04-15T02:06:25.359Z,64.2918
2023-04-15T02:07:25.884Z,64.2709
2023-04-15T02:08:26.420Z,64.1842
2023-04-15T02:09:26.965Z,64.1636
2023-04-15T02:10:27.539Z,64.2513
2023-04-15T02:11:28.301Z,64.3456
2023-04-15T02:12:28.809Z,64.5624
2023-04-15T02:13:29.356Z,64.5995
2023-04-15T02:14:29.858Z,64.6043
2023-04-15T02:15:30.381Z,64.5772
2023-04-15T02:16:30.983Z,64.8454
2023-04-15T02:17:31.526Z,65.6403
2023-04-15T02:18:32.032Z,65.3056
2023-04-15T02:19:32.556Z,64.9392
2023-04-15T02:20:33.089Z,64.9282
2023-04-15T02:21:34.258Z,64.8514
2023-04-15T02:22:34.877Z,64.9165
2023-04-15T02:23:35.438Z,65.1487
2023-04-15T02:24:35.931Z,65.1095
2023-04-15T02:25:36.453Z,65.1698
2023-04-15T02:26:37.013Z,65.3378
2023-04-15T02:27:37.546Z,65.4156
2023-04-15T02:28:38.077Z,65.4456
2023-04-15T02:29:38.665Z,65.3952
2023-04-15T02:30:39.195Z,65.3757
2023-04-15T02:31:40.015Z,65.2983
2023-04-15T02:32:40.594Z,65.2594
2023-04-15T02:33:41.105Z,65.1724
2023-04-15T02:34:41.660Z,65.0674
2023-04-15T02:35:42.233Z,65.0238
2023-04-15T02:36:42.807Z,65.0693
2023-04-15T02:37:43.434Z,65.1334
2023-04-15T02:38:44.055Z,65.1089
2023-04-15T02:39:44.582Z,64.9808
2023-04-15T02:40:45.142Z,64.8083
2023-04-15T02:41:45.977Z,64.6285
2023-04-15T02:42:46.581Z,64.5368
2023-04-15T02:43:47.112Z,64.5544
2023-04-15T02:44:47.680Z,64.6703
2023-04-15T02:45:48.398Z,64.6547
2023-04-15T02:46:49.094Z,64.6069
2023-04-15T02:47:49.707Z,64.7020
2023-04-15T02:48:50.485Z,64.8596
2023-04-15T02:49:51.002Z,64.9378
2023-04-15T02:50:52.048Z,64.9615
2023-04-15T02:51:52.857Z,65.2383
2023-04-15T02:52:53.385Z,65.3691
2023-04-15T02:53:53.973Z,65.4036
2023-04-15T02:54:54.530Z,65.3708
2023-04-15T02:55:55.065Z,65.4434
2023-04-15T02:56:55.814Z,65.4823
2023-04-15T02:57:56.365Z,65.4563
2023-04-15T02:58:56.960Z,65.5916
2023-04-15T02:59:57.454Z,65.6135
2023-04-15T03:00:57.998Z,65.7189
2023-04-15T03:01:58.549Z,65.8223
2023-04-15T03:02:59.215Z,65.8579
2023-04-15T03:03:59.904Z,65.8358
2023-04-15T03:05:00.425Z,65.8733
2023-04-15T03:06:00.943Z,66.0399
2023-04-15T03:07:01.487Z,66.0437
2023-04-15T03:08:02.032Z,66.1319
2023-04-15T03:09:02.731Z,66.1273
2023-04-15T03:10:03.324Z,66.1544
2023-04-15T03:11:03.895Z,66.2125
2023-04-15T03:12:04.421Z,66.2219
2023-04-15T03:13:04.986Z,66.3757
2023-04-15T03:14:05.547Z,66.3220
2023-04-15T03:15:06.083Z,66.2707
2023-04-15T03:16:06.718Z,66.3289
2023-04-15T03:17:07.275Z,66.5261
2023-04-15T03:18:07.928Z,66.6516
2023-04-15T03:19:08.484Z,66.6946
2023-04-15T03:20:09.061Z,66.8096
2023-04-15T03:21:09.563Z,66.7663
2023-04-15T03:22:10.122Z,66.7578
2023-04-15T03:23:10.650Z,66.8554
2023-04-15T03:24:11.219Z,66.8363
2023-04-15T03:25:11.748Z,66.8758
2023-04-15T03:26:12.300Z,66.8007
2023-04-15T03:27:12.804Z,66.7292
2023-04-15T03:28:13.345Z,66.7018
2023-04-15T03:29:15.424Z,66.6711
2023-04-15T03:30:15.935Z,66.6309
2023-04-15T03:31:16.828Z,66.5405
2023-04-15T03:32:17.339Z,66.4658
2023-04-15T03:33:17.890Z,66.3861
2023-04-15T03:34:18.442Z,66.3244
2023-04-15T03:35:19.012Z,66.3191
2023-04-15T03:36:19.541Z,66.4787
2023-04-15T03:37:20.054Z,66.5082
2023-04-15T03:38:20.621Z,66.4233
2023-04-15T03:39:21.174Z,66.4522
2023-04-15T03:40:21.706Z,66.4661
2023-04-15T03:41:22.500Z,66.4297
2023-04-15T03:42:23.003Z,66.4744
2023-04-15T03:43:23.574Z,66.5874
2023-04-15T03:44:24.129Z,66.5728
2023-04-15T03:45:24.690Z,66.5547
2023-04-15T03:46:25.487Z,66.5531
2023-04-15T03:47:25.991Z,66.5605
2023-04-15T03:48:26.516Z,66.5349
2023-04-15T03:49:27.076Z,66.4566
2023-04-15T03:50:27.593Z,66.5149
2023-04-15T03:51:28.135Z,66.7524
2023-04-15T03:52:28.697Z,66.9515
2023-04-15T03:53:29.288Z,67.0105
2023-04-15T03:54:29.833Z,66.9401
2023-04-15T03:55:30.361Z,66.8808
2023-04-15T03:56:31.126Z,66.9412
2023-04-15T03:57:31.692Z,66.9673
2023-04-15T03:58:32.282Z,67.0780
2023-04-15T03:59:32.850Z,67.1379
2023-04-15T04:00:33.401Z,67.1444
2023-04-15T04:01:34.021Z,67.1918
2023-04-15T04:02:34.612Z,67.2061
2023-04-15T04:03:35.357Z,67.3186
2023-04-15T04:04:36.056Z,67.3362
2023-04-15T04:05:36.572Z,67.4366
2023-04-15T04:06:37.109Z,67.5200
2023-04-15T04:07:37.652Z,67.5186
2023-04-15T04:08:38.283Z,67.5301
2023-04-15T04:09:38.809Z,67.5088
2023-04-15T04:10:39.402Z,67.5337
2023-04-15T04:11:40.262Z,67.6054
2023-04-15T04:12:40.769Z,67.6223
2023-04-15T04:13:41.394Z,67.7857
2023-04-15T04:14:41.934Z,67.7523
2023-04-15T04:15:42.480Z,67.8443
2023-04-15T04:16:44.886Z,67.8839
2023-04-15T04:17:45.406Z,67.9454
2023-04-15T04:18:45.984Z,67.9590
2023-04-15T04:19:46.554Z,67.9538
2023-04-15T04:20:47.102Z,67.8540
2023-04-15T04:21:47.872Z,67.7666
2023-04-15T04:22:48.427Z,67.7629
2023-04-15T04:23:49.017Z,67.7368
2023-04-15T04:24:49.538Z,67.7242
2023-04-15T04:25:50.076Z,67.7102
2023-04-15T04:26:50.609Z,67.7384
2023-04-15T04:27:51.172Z,67.6833
2023-04-15T04:28:51.918Z,67.6837
2023-04-15T04:29:52.478Z,67.6799
2023-04-15T04:30:52.997Z,67.6544
2023-04-15T04:31:53.630Z,67.7635
2023-04-15T04:32:54.191Z,67.8486
2023-04-15T04:33:54.718Z,67.8244
2023-04-15T04:34:55.246Z,67.8321
2023-04-15T04:35:55.778Z,67.8304
2023-04-15T04:36:56.353Z,67.8346
2023-04-15T04:37:56.907Z,67.7578
2023-04-15T04:38:57.441Z,67.7704
2023-04-15T04:39:57.957Z,67.7547
2023-04-15T04:40:58.463Z,67.6449
2023-04-15T04:41:59.244Z,67.5112
2023-04-15T04:42:59.807Z,67.3505
2023-04-15T04:44:00.353Z,67.1980
2023-04-15T04:45:00.892Z,67.0690
2023-04-15T04:46:01.481Z,66.9619
2023-04-15T04:47:02.072Z,66.9022
2023-04-15T04:48:02.759Z,66.8887
2023-04-15T04:49:03.770Z,66.9004
2023-04-15T04:50:04.359Z,66.9308
2023-04-15T04:51:04.910Z,66.9185
2023-04-15T04:52:05.444Z,66.8870
2023-04-15T04:53:05.974Z,66.8334
2023-04-15T04:54:06.787Z,66.7930
2023-04-15T04:55:07.337Z,66.7779
2023-04-15T04:56:07.872Z,66.7182
2023-04-15T04:57:08.423Z,66.5845
2023-04-15T04:58:09.008Z,66.3969
2023-04-15T04:59:09.557Z,66.2844
2023-04-15T05:00:10.142Z,66.2218
2023-04-15T05:01:10.781Z,66.1786
2023-04-15T05:02:11.341Z,66.1255
2023-04-15T05:03:12.148Z,66.0731
2023-04-15T05:04:13.182Z,66.0495
2023-04-15T05:05:13.768Z,66.0339
2023-04-15T05:06:14.320Z,65.9954
2023-04-15T05:07:14.898Z,65.9803
2023-04-15T05:08:15.507Z,65.9719
2023-04-15T05:09:16.378Z,65.9275
2023-04-15T05:10:16.957Z,65.9459
2023-04-15T05:11:17.467Z,65.9466
2023-04-15T05:12:17.988Z,65.9866
2023-04-15T05:13:18.545Z,66.0137
2023-04-15T05:14:19.138Z,66.0245
2023-04-15T05:15:19.679Z,65.9715
2023-04-15T05:16:20.295Z,65.9598
2023-04-15T05:17:20.903Z,65.9403
2023-04-15T05:18:21.447Z,65.9895
2023-04-15T05:19:22.012Z,65.9784
2023-04-15T05:20:22.547Z,65.9499
2023-04-15T05:21:23.079Z,65.9762
2023-04-15T05:22:23.634Z,66.0253
2023-04-15T05:23:24.517Z,66.0070
2023-04-15T05:24:25.066Z,65.9510
2023-04-15T05:25:25.584Z,65.8916
2023-04-15T05:26:26.143Z,65.8139
2023-04-15T05:27:26.725Z,65.7629
2023-04-15T05:28:27.271Z,65.7413
2023-04-15T05:29:27.817Z,65.7163
2023-04-15T05:30:28.348Z,65.6526
2023-04-15T05:31:29.209Z,65.4992
2023-04-15T05:32:29.840Z,65.3896
2023-04-15T05:33:30.416Z,65.3115
2023-04-15T05:34:31.035Z,65.2750
2023-04-15T05:35:31.603Z,65.2444
2023-04-15T05:36:32.189Z,65.2264
2023-04-15T05:37:32.764Z,65.2495
2023-04-15T05:38:33.556Z,65.2352
2023-04-15T05:39:34.163Z,65.1951
2023-04-15T05:40:34.755Z,65.0708
2023-04-15T05:41:35.336Z,64.9526
2023-04-15T05:42:35.899Z,64.8577
2023-04-15T05:43:36.521Z,64.7736
2023-04-15T05:44:37.153Z,64.6917
2023-04-15T05:45:37.729Z,64.5985
2023-04-15T05:46:38.583Z,64.4904
2023-04-15T05:47:39.259Z,64.3715
2023-04-15T05:48:39.895Z,64.2722
2023-04-15T05:49:40.492Z,64.1917
2023-04-15T05:50:41.071Z,64.1319
2023-04-15T05:51:41.733Z,64.0698
2023-04-15T05:52:42.277Z,63.9600
2023-04-15T05:53:42.851Z,63.7851
2023-04-15T05:54:43.438Z,63.6277
2023-04-15T05:55:44.040Z,63.5373
2023-04-15T05:56:44.617Z,63.4442
2023-04-15T05:57:45.227Z,63.3395
2023-04-15T05:58:46.017Z,63.2273
2023-04-15T05:59:46.562Z,63.1380
2023-04-15T06:00:47.149Z,63.0416
2023-04-15T06:01:47.981Z,62.9417
2023-04-15T06:02:48.661Z,62.8529
2023-04-15T06:03:49.445Z,62.7491
2023-04-15T06:04:50.186Z,62.6630
2023-04-15T06:05:50.688Z,62.5468
2023-04-15T06:06:51.256Z,62.4042
2023-04-15T06:07:51.823Z,62.3249
2023-04-15T06:08:52.458Z,62.2227
2023-04-15T06:09:53.040Z,62.0077
2023-04-15T06:10:53.622Z,61.7845
2023-04-15T06:11:54.310Z,61.6377
2023-04-15T06:12:54.838Z,61.5092
2023-04-15T06:13:55.414Z,61.3923
2023-04-15T06:14:56.022Z,61.2621
2023-04-15T06:15:56.605Z,61.1076
2023-04-15T06:16:57.247Z,60.9454
2023-04-15T06:17:57.830Z,60.7350
2023-04-15T06:18:58.436Z,60.4311
2023-04-15T06:19:59.016Z,60.2155
2023-04-15T06:20:59.622Z,60.0125
2023-04-15T06:22:00.228Z,59.7764
2023-04-15T06:23:00.823Z,59.6304
2023-04-15T06:24:01.473Z,59.5124
2023-04-15T06:25:02.116Z,59.3383
2023-04-15T06:26:02.712Z,59.0656
2023-04-15T06:27:03.312Z,58.8465
2023-04-15T06:28:03.898Z,58.6933
2023-04-15T06:29:04.483Z,58.4465
2023-04-15T06:30:05.088Z,58.1806
2023-04-15T06:31:07.269Z,58.0239
2023-04-15T06:32:07.827Z,57.8855
2023-04-15T06:33:08.467Z,57.6986
2023-04-15T06:34:09.105Z,57.5657
2023-04-15T06:35:09.698Z,57.4216
2023-04-15T06:36:10.355Z,57.2951
2023-04-15T06:37:10.904Z,57.1219
2023-04-15T06:38:11.503Z,56.8314
2023-04-15T06:39:12.079Z,56.6038
2023-04-15T06:40:12.675Z,56.4497
2023-04-15T06:41:13.256Z,55.8599
2023-04-15T06:42:13.848Z,55.6157
2023-04-15T06:43:14.477Z,55.8152
2023-04-15T06:44:15.080Z,55.8458
2023-04-15T06:45:15.701Z,55.8180
2023-04-15T06:46:16.368Z,55.8450
2023-04-15T06:47:17.017Z,55.8560
2023-04-15T06:48:17.629Z,55.8425
2023-04-15T06:49:18.237Z,55.7230
2023-04-15T06:50:18.866Z,55.6414
2023-04-15T06:51:19.457Z,55.5356
2023-04-15T06:52:20.074Z,55.2096
2023-04-15T06:53:20.624Z,54.5898
2023-04-15T06:54:21.234Z,54.5845
2023-04-15T06:55:21.828Z,54.7288
2023-04-15T06:56:22.408Z,54.7465
2023-04-15T06:57:23.017Z,54.5819
2023-04-15T06:58:23.571Z,54.5765
2023-04-15T06:59:24.145Z,54.3695
2023-04-15T07:00:24.779Z,54.2743
2023-04-15T07:01:25.390Z,54.2114
2023-04-15T07:02:26.127Z,53.9689
2023-04-15T07:03:26.731Z,53.8957
2023-04-15T07:04:27.335Z,53.9210
2023-04-15T07:05:27.985Z,53.9561
2023-04-15T07:06:28.625Z,53.8633
2023-04-15T07:07:29.191Z,53.8274
2023-04-15T07:08:30.025Z,53.7763
2023-04-15T07:09:30.595Z,53.7727
2023-04-15T07:10:31.190Z,53.8379
2023-04-15T07:11:31.789Z,53.8188
2023-04-15T07:12:32.365Z,53.7780
2023-04-15T07:13:32.936Z,53.7280
2023-04-15T07:14:33.520Z,53.6821
2023-04-15T07:15:34.123Z,53.7024
2023-04-15T07:16:34.770Z,53.6571
2023-04-15T07:17:35.411Z,53.5679
2023-04-15T07:18:35.993Z,53.4741
2023-04-15T07:19:36.590Z,53.4152
2023-04-15T07:20:37.232Z,53.3670
2023-04-15T07:21:38.928Z,53.1801
2023-04-15T07:22:40.522Z,53.0830
2023-04-15T07:23:41.347Z,53.0996
2023-04-15T07:24:41.922Z,53.0576
2023-04-15T07:25:42.541Z,52.9949
2023-04-15T07:26:43.105Z,52.9561
2023-04-15T07:27:43.691Z,52.9455
2023-04-15T07:28:44.307Z,52.9151
2023-04-15T07:29:44.902Z,52.8947
2023-04-15T07:30:45.499Z,52.8555
2023-04-15T07:31:46.119Z,52.8400
2023-04-15T07:32:46.758Z,52.9355
2023-04-15T07:33:47.303Z,52.9697
2023-04-15T07:34:47.908Z,53.0453
2023-04-15T07:35:48.530Z,53.2270
2023-04-15T07:36:49.116Z,53.2751
2023-04-15T07:37:49.912Z,53.2980
2023-04-15T07:38:50.495Z,53.3303
2023-04-15T07:39:51.124Z,53.3465
2023-04-15T07:40:51.865Z,53.3171
2023-04-15T07:41:52.438Z,53.5296
2023-04-15T07:42:53.009Z,53.6892
2023-04-15T07:43:53.685Z,54.0600
2023-04-15T07:44:54.259Z,54.4584
2023-04-15T07:45:55.114Z,54.9263
2023-04-15T07:46:55.659Z,55.3318
2023-04-15T07:47:56.381Z,55.3279
2023-04-15T07:48:56.986Z,55.3896
2023-04-15T07:49:57.616Z,55.3091
2023-04-15T07:50:58.226Z,55.2530
2023-04-15T07:51:58.826Z,55.3068
2023-04-15T07:52:59.665Z,55.6286
2023-04-15T07:54:00.241Z,56.0981
2023-04-15T07:55:00.874Z,55.9428
2023-04-15T07:56:01.733Z,55.7770
2023-04-15T07:57:02.330Z,55.6496
2023-04-15T07:58:03.041Z,55.5948
2023-04-15T07:59:03.805Z,55.5584
2023-04-15T08:00:04.566Z,55.4812
2023-04-15T08:01:05.171Z,55.3832
2023-04-15T08:02:05.932Z,55.2606
2023-04-15T08:03:06.573Z,55.1777
2023-04-15T08:04:07.377Z,55.1647
2023-04-15T08:05:07.982Z,55.1397
2023-04-15T08:06:08.577Z,55.2375
2023-04-15T08:07:09.157Z,55.3750
2023-04-15T08:08:09.751Z,55.5040
2023-04-15T08:09:10.357Z,55.5771
2023-04-15T08:10:11.112Z,55.5864
2023-04-15T08:11:11.921Z,55.5987
2023-04-15T08:12:12.505Z,55.6088
2023-04-15T08:13:13.106Z,55.5337
2023-04-15T08:14:13.689Z,55.4391
2023-04-15T08:15:14.296Z,55.3452
2023-04-15T08:16:14.866Z,55.2286
2023-04-15T08:17:15.627Z,55.0636
2023-04-15T08:18:16.277Z,54.8698
2023-04-15T08:19:16.872Z,54.5743
2023-04-15T08:20:17.503Z,54.2563
2023-04-15T08:21:18.165Z,53.8225
2023-04-15T08:22:20.105Z,53.6054
2023-04-15T08:23:22.175Z,53.4907
2023-04-15T08:24:22.818Z,53.3769
2023-04-15T08:25:23.430Z,53.3089
2023-04-15T08:26:24.022Z,53.1462
2023-04-15T08:27:24.608Z,52.9086
2023-04-15T08:28:25.199Z,52.6698
2023-04-15T08:29:25.838Z,52.5880
2023-04-15T08:30:26.666Z,52.5767
2023-04-15T08:31:27.403Z,52.4990
2023-04-15T08:32:27.985Z,52.3723
2023-04-15T08:33:28.904Z,52.1703
2023-04-15T08:34:29.484Z,52.0064
2023-04-15T08:35:30.158Z,51.8459
2023-04-15T08:36:30.759Z,51.7034
2023-04-15T08:37:31.551Z,51.5314
2023-04-15T08:38:32.167Z,51.1052
2023-04-15T08:39:32.835Z,50.7910
2023-04-15T08:40:33.689Z,50.5673
2023-04-15T08:41:34.275Z,50.4816
2023-04-15T08:42:34.901Z,50.4356
2023-04-15T08:43:35.526Z,50.3737
2023-04-15T08:44:36.102Z,50.3154
2023-04-15T08:45:36.692Z,50.2615
2023-04-15T08:46:37.371Z,50.2954
2023-04-15T08:47:38.204Z,50.3011
2023-04-15T08:48:38.817Z,50.3469
2023-04-15T08:49:39.481Z,50.3780
2023-04-15T08:50:40.124Z,50.2836
2023-04-15T08:51:40.731Z,50.1846
2023-04-15T08:52:41.555Z,50.1054
2023-04-15T08:53:42.179Z,49.9885
2023-04-15T08:54:42.779Z,49.8000
2023-04-15T08:55:43.567Z,49.7042
2023-04-15T08:56:44.379Z,49.6437
2023-04-15T08:57:44.953Z,49.2831
2023-04-15T08:58:45.508Z,48.8706
2023-04-15T08:59:46.086Z,48.5895
2023-04-15T09:00:46.760Z,48.6686
2023-04-15T09:01:47.445Z,48.7514
2023-04-15T09:02:48.152Z,48.7679
2023-04-15T09:03:48.852Z,48.8249
2023-04-15T09:04:49.537Z,49.0191
2023-04-15T09:05:51.461Z,49.5599
2023-04-15T09:06:50.227Z,49.9188
2023-04-15T09:07:50.858Z,50.3362
2023-04-15T09:08:51.385Z,50.7245
2023-04-15T09:09:51.949Z,51.2077
2023-04-15T09:10:52.559Z,51.6692
2023-04-15T09:11:53.158Z,51.9550
2023-04-15T09:12:53.769Z,52.5596
2023-04-15T09:13:54.357Z,52.8878
2023-04-15T09:14:54.932Z,53.1643
2023-04-15T09:15:55.497Z,53.3890
2023-04-15T09:16:56.106Z,53.5895
2023-04-15T09:17:56.715Z,53.8865
2023-04-15T09:18:57.326Z,54.1843
2023-04-15T09:19:57.908Z,54.4675
2023-04-15T09:20:58.490Z,54.9617
2023-04-15T09:21:59.414Z,55.3521
2023-04-15T09:23:00.440Z,55.4289
2023-04-15T09:24:01.403Z,55.3760
2023-04-15T09:25:02.437Z,55.3064
2023-04-15T09:26:03.052Z,55.3207
2023-04-15T09:27:03.680Z,55.2972
2023-04-15T09:28:04.494Z,55.2459
2023-04-15T09:29:05.101Z,55.0850
2023-04-15T09:30:05.668Z,54.9118
2023-04-15T09:31:06.283Z,54.8441
2023-04-15T09:32:06.869Z,54.7904
2023-04-15T09:33:07.511Z,54.7060
2023-04-15T09:34:08.056Z,54.5679
2023-04-15T09:35:08.893Z,54.3920
2023-04-15T09:36:09.587Z,54.2017
2023-04-15T09:37:10.543Z,53.7452
2023-04-15T09:38:11.113Z,53.5042
2023-04-15T09:39:11.680Z,53.4360
2023-04-15T09:40:12.269Z,53.5405
2023-04-15T09:41:12.842Z,53.6057
2023-04-15T09:42:13.427Z,53.5168
2023-04-15T09:43:14.032Z,53.4321
2023-04-15T09:44:14.582Z,53.4068
2023-04-15T09:45:15.200Z,53.3146
2023-04-15T09:46:15.793Z,53.2349
2023-04-15T09:47:16.672Z,52.9069
2023-04-15T09:48:17.299Z,52.8280
2023-04-15T09:49:17.973Z,52.8927
2023-04-15T09:50:18.551Z,52.7755
2023-04-15T09:51:19.213Z,52.5194
2023-04-15T09:52:19.794Z,52.6424
2023-04-15T09:53:20.387Z,52.7849
2023-04-15T09:54:20.974Z,52.8981
2023-04-15T09:55:21.552Z,52.9003
2023-04-15T09:56:22.138Z,52.8326
2023-04-15T09:57:22.693Z,52.0761
2023-04-15T09:58:23.278Z,51.6734
2023-04-15T09:59:23.844Z,51.7055
2023-04-15T10:00:24.985Z,51.2059
2023-04-15T10:01:25.565Z,50.9592
2023-04-15T10:02:26.287Z,50.9818
2023-04-15T10:03:27.000Z,50.8311
2023-04-15T10:04:27.958Z,50.7164
2023-04-15T10:05:29.775Z,50.7258
2023-04-15T10:06:30.777Z,50.8176
2023-04-15T10:07:31.349Z,51.1868
2023-04-15T10:08:31.958Z,51.4239
2023-04-15T10:09:32.553Z,51.3994
2023-04-15T10:10:33.133Z,51.3307
2023-04-15T10:11:33.692Z,51.3201
2023-04-15T10:12:34.315Z,51.3555
2023-04-15T10:13:34.877Z,51.2176
2023-04-15T10:14:35.506Z,51.1942
2023-04-15T10:15:36.090Z,51.1242
2023-04-15T10:16:36.634Z,51.1989
2023-04-15T10:17:37.461Z,51.3085
2023-04-15T10:18:38.150Z,51.3068
2023-04-15T10:19:38.771Z,52.2702
2023-04-15T10:20:39.365Z,53.1389
2023-04-15T10:21:39.949Z,53.5271
2023-04-15T10:22:40.757Z,53.6594
2023-04-15T10:23:41.280Z,53.6789
2023-04-15T10:25:44.935Z,53.7383
2023-04-15T10:25:44.935Z,53.9169
2023-04-15T10:26:45.556Z,54.2728
2023-04-15T10:27:46.122Z,54.2970
2023-04-15T10:28:46.710Z,54.2259
2023-04-15T10:29:47.299Z,54.5040
2023-04-15T10:30:47.880Z,54.3113
2023-04-15T10:31:48.576Z,52.9797
2023-04-15T10:32:49.169Z,53.4794
2023-04-15T10:33:49.733Z,53.1726
2023-04-15T10:34:51.071Z,53.3922
2023-04-15T10:35:52.414Z,53.3294
2023-04-15T10:36:52.978Z,53.1720
2023-04-15T10:37:53.552Z,53.0431
2023-04-15T10:38:54.132Z,51.4063
2023-04-15T10:39:54.910Z,51.0178
2023-04-15T10:40:55.514Z,51.5713
2023-04-15T10:41:56.167Z,52.2174
2023-04-15T10:42:56.725Z,52.7326
2023-04-15T10:43:57.295Z,53.2528
2023-04-15T10:44:57.868Z,53.6596
2023-04-15T10:45:58.445Z,53.5958
2023-04-15T10:46:59.277Z,53.7390
2023-04-15T10:48:01.596Z,53.8557
2023-04-15T10:49:00.359Z,53.7664
2023-04-15T10:50:00.985Z,53.6879
2023-04-15T10:51:01.591Z,53.7938
2023-04-15T10:52:02.167Z,53.4713
2023-04-15T10:53:02.726Z,53.8793
2023-04-15T10:54:03.536Z,54.1352
2023-04-15T10:55:04.114Z,54.6262
2023-04-15T10:56:04.682Z,54.2968
2023-04-15T10:57:05.250Z,53.6604
2023-04-15T10:58:05.866Z,54.0435
2023-04-15T10:59:06.431Z,54.1534
2023-04-15T11:00:07.001Z,54.1044
2023-04-15T11:01:07.616Z,54.0936
2023-04-15T11:02:08.479Z,54.1966
2023-04-15T11:03:09.518Z,53.9496
2023-04-15T11:04:10.543Z,53.1863
2023-04-15T11:05:11.097Z,52.1421
2023-04-15T11:06:11.669Z,51.7705
2023-04-15T11:07:12.257Z,51.3748
2023-04-15T11:08:12.868Z,51.3717
2023-04-15T11:09:13.690Z,50.9004
2023-04-15T11:10:14.279Z,51.1094
2023-04-15T11:11:14.831Z,51.3401
2023-04-15T11:12:15.445Z,51.4073
2023-04-15T11:13:16.062Z,51.3486
2023-04-15T11:14:16.632Z,50.6390
2023-04-15T11:15:17.199Z,50.4761
2023-04-15T11:16:17.820Z,50.5124
2023-04-15T11:17:18.698Z,50.4790
2023-04-15T11:18:19.297Z,50.2519
2023-04-15T11:19:19.908Z,50.0921
2023-04-15T11:20:20.499Z,49.8125
2023-04-15T11:21:21.088Z,50.2753
2023-04-15T11:22:21.666Z,50.7606
2023-04-15T11:23:22.534Z,51.2452
2023-04-15T11:24:23.318Z,51.4917
2023-04-15T11:25:24.043Z,51.7362
2023-04-15T11:26:24.697Z,51.9930
2023-04-15T11:27:25.293Z,52.1629
2023-04-15T11:28:25.856Z,52.4184
2023-04-15T11:29:26.465Z,52.7323
2023-04-15T11:30:27.080Z,53.2468
2023-04-15T11:31:27.701Z,53.3699
2023-04-15T11:32:28.282Z,53.5016
2023-04-15T11:33:28.911Z,53.7158
2023-04-15T11:34:29.493Z,54.1517
2023-04-15T11:35:30.084Z,54.0446
2023-04-15T11:36:30.645Z,54.2623
2023-04-15T11:37:31.252Z,54.5707
2023-04-15T11:38:31.834Z,54.8805
2023-04-15T11:39:32.429Z,55.4560
2023-04-15T11:40:32.980Z,56.6628
2023-04-15T11:41:33.579Z,56.8990
2023-04-15T11:42:48.741Z,57.1873
2023-04-15T11:43:37.148Z,57.4794
2023-04-15T11:44:37.735Z,57.8079
2023-04-15T11:45:38.340Z,57.5839
2023-04-15T11:46:38.912Z,58.3609
2023-04-15T11:47:39.509Z,58.8235
2023-04-15T11:48:40.113Z,58.7606
2023-04-15T11:49:40.953Z,58.6895
2023-04-15T11:50:41.559Z,58.5869
2023-04-15T11:51:42.099Z,58.6768
2023-04-15T11:52:42.656Z,58.5574
2023-04-15T11:53:43.281Z,58.9423
2023-04-15T11:54:43.873Z,59.2050
2023-04-15T11:55:44.683Z,59.1786
2023-04-15T11:56:45.244Z,58.7891
2023-04-15T11:57:45.839Z,58.4586
2023-04-15T11:58:46.572Z,58.0857
2023-04-15T11:59:47.220Z,57.5305
2023-04-15T12:00:47.878Z,57.0772
2023-04-15T12:01:48.711Z,56.2543
2023-04-15T12:02:49.360Z,54.9593
2023-04-15T12:03:50.545Z,54.5245
2023-04-15T12:04:51.360Z,54.5852
2023-04-15T12:05:51.976Z,54.4381
2023-04-15T12:06:52.585Z,53.6339
2023-04-15T12:07:53.210Z,52.6864
2023-04-15T12:08:53.816Z,52.4241
2023-04-15T12:09:54.443Z,52.2991
2023-04-15T12:10:55.070Z,51.7931
2023-04-15T12:11:55.664Z,51.1045
2023-04-15T12:12:56.284Z,50.0479
2023-04-15T12:13:56.885Z,49.3792
2023-04-15T12:14:57.541Z,49.1468
2023-04-15T12:15:58.186Z,48.8208
2023-04-15T12:16:58.813Z,48.4897
2023-04-15T12:17:59.743Z,48.7252